createdAt,value
2018-06-22T00:00:18.456Z,24.83
2018-06-22T00:02:44.860Z,24.82
2018-06-22T00:05:11.196Z,24.84
2018-06-22T00:07:37.571Z,24.82
2018-06-22T00:10:03.958Z,24.84
2018-06-22T00:12:30.302Z,24.82
2018-06-22T00:14:56.683Z,24.80
2018-06-22T00:17:22.989Z,24.78
2018-06-22T00:19:49.355Z,24.80
2018-06-22T00:22:15.675Z,24.78
2018-06-22T00:24:41.991Z,24.78
2018-06-22T00:27:08.312Z,24.64
2018-06-22T00:29:34.635Z,24.72
2018-06-22T00:32:00.979Z,24.73
2018-06-22T00:34:27.356Z,24.72
2018-06-22T00:36:53.780Z,24.74
2018-06-22T00:39:20.119Z,24.72
2018-06-22T00:41:46.443Z,24.72
2018-06-22T00:44:12.831Z,24.66
2018-06-22T00:46:39.264Z,24.74
2018-06-22T00:49:05.643Z,24.69
2018-06-22T00:51:31.976Z,24.70
2018-06-22T00:53:58.453Z,24.71
2018-06-22T00:56:24.848Z,24.69
2018-06-22T00:58:51.231Z,24.70
2018-06-22T01:01:17.759Z,24.65
2018-06-22T01:03:44.156Z,24.58
2018-06-22T01:06:10.478Z,24.49
2018-06-22T01:08:36.821Z,24.56
2018-06-22T01:11:03.314Z,24.44
2018-06-22T01:13:29.642Z,24.37
2018-06-22T01:15:56.043Z,24.35
2018-06-22T01:18:22.355Z,24.29
2018-06-22T01:20:48.883Z,24.30
2018-06-22T01:23:15.289Z,24.25
2018-06-22T01:25:41.613Z,24.18
2018-06-22T01:28:07.923Z,24.20
2018-06-22T01:30:34.348Z,24.17
2018-06-22T01:33:00.927Z,24.16
2018-06-22T01:35:27.291Z,24.06
2018-06-22T01:37:53.651Z,24.11
2018-06-22T01:40:20.180Z,23.96
2018-06-22T01:42:46.676Z,24.02
2018-06-22T01:45:13.055Z,24.03
2018-06-22T01:47:39.435Z,24.05
2018-06-22T01:50:05.777Z,24.00
2018-06-22T01:52:32.108Z,23.91
2018-06-22T01:54:58.590Z,23.90
2018-06-22T01:57:25.201Z,23.93
2018-06-22T01:59:51.588Z,23.97
2018-06-22T02:02:17.925Z,23.92
2018-06-22T02:04:44.287Z,23.92
2018-06-22T02:07:10.774Z,23.88
2018-06-22T02:09:37.159Z,23.77
2018-06-22T02:12:03.497Z,23.83
2018-06-22T02:14:29.860Z,23.87
2018-06-22T02:16:56.294Z,23.86
2018-06-22T02:19:22.615Z,23.76
2018-06-22T02:21:49.001Z,23.82
2018-06-22T02:24:15.379Z,23.81
2018-06-22T02:26:41.828Z,23.84
2018-06-22T02:29:08.185Z,23.83
2018-06-22T02:31:34.544Z,23.78
2018-06-22T02:34:00.939Z,23.80
2018-06-22T02:36:27.259Z,23.76
2018-06-22T02:38:53.627Z,23.78
2018-06-22T02:41:19.932Z,23.79
2018-06-22T02:43:46.346Z,23.68
2018-06-22T02:46:12.707Z,23.72
2018-06-22T02:48:39.084Z,23.70
2018-06-22T02:51:05.400Z,23.67
2018-06-22T02:53:31.723Z,23.70
2018-06-22T02:55:58.075Z,23.67
2018-06-22T02:58:24.421Z,23.69
2018-06-22T03:00:50.736Z,23.63
2018-06-22T03:03:17.051Z,23.72
2018-06-22T03:05:43.416Z,23.52
2018-06-22T03:08:09.919Z,23.61
2018-06-22T03:10:36.272Z,23.62
2018-06-22T03:13:02.662Z,23.58
2018-06-22T03:15:29.019Z,23.58
2018-06-22T03:17:55.379Z,23.74
2018-06-22T03:20:21.699Z,23.81
2018-06-22T03:22:48.024Z,23.88
2018-06-22T03:25:14.426Z,23.96
2018-06-22T03:27:40.904Z,23.98
2018-06-22T03:30:07.361Z,24.09
2018-06-22T03:32:33.828Z,24.11
2018-06-22T03:35:00.154Z,24.25
2018-06-22T03:37:26.480Z,24.24
2018-06-22T03:39:52.964Z,24.26
2018-06-22T03:42:19.300Z,24.28
2018-06-22T03:44:45.735Z,24.33
2018-06-22T03:47:12.099Z,24.36
2018-06-22T03:49:38.420Z,24.32
2018-06-22T03:52:04.788Z,24.39
2018-06-22T03:54:31.354Z,24.40
2018-06-22T03:56:57.716Z,24.39
2018-06-22T03:59:24.230Z,24.44
2018-06-22T04:01:50.604Z,24.56
2018-06-22T04:04:17.005Z,24.54
2018-06-22T04:06:43.376Z,24.43
2018-06-22T04:09:09.761Z,24.46
2018-06-22T04:11:36.097Z,24.52
2018-06-22T04:14:02.408Z,24.50
2018-06-22T04:16:28.866Z,24.46
2018-06-22T04:18:55.220Z,24.48
2018-06-22T04:21:21.600Z,24.55
2018-06-22T04:23:47.953Z,24.67
2018-06-22T04:26:14.336Z,24.57
2018-06-22T04:28:40.785Z,24.52
2018-06-22T04:31:07.169Z,24.52
2018-06-22T04:33:33.509Z,24.66
2018-06-22T04:35:59.893Z,24.57
2018-06-22T04:38:26.280Z,24.56
2018-06-22T04:40:52.640Z,24.63
2018-06-22T04:43:19.046Z,24.68
2018-06-22T04:45:45.430Z,24.61
2018-06-22T04:48:11.964Z,24.63
2018-06-22T04:50:38.299Z,24.74
2018-06-22T04:53:04.650Z,24.73
2018-06-22T04:55:31.029Z,24.72
2018-06-22T04:57:57.395Z,24.65
2018-06-22T05:00:23.744Z,24.73
2018-06-22T05:02:50.091Z,24.74
2018-06-22T05:05:16.578Z,24.88
2018-06-22T05:07:42.902Z,24.82
2018-06-22T05:10:09.310Z,24.78
2018-06-22T05:12:35.686Z,24.76
2018-06-22T05:15:02.068Z,24.88
2018-06-22T05:17:28.409Z,24.97
2018-06-22T05:19:54.756Z,24.98
2018-06-22T05:22:21.141Z,25.09
2018-06-22T05:24:47.477Z,25.04
2018-06-22T05:27:13.823Z,24.98
2018-06-22T05:29:40.205Z,25.07
2018-06-22T05:32:06.613Z,25.17
2018-06-22T05:34:33.205Z,25.22
2018-06-22T05:36:59.609Z,25.13
2018-06-22T05:39:25.950Z,25.27
2018-06-22T05:41:52.295Z,25.22
2018-06-22T05:44:18.770Z,25.34
2018-06-22T05:46:45.128Z,25.47
2018-06-22T05:49:11.508Z,25.33
2018-06-22T05:51:37.835Z,25.32
2018-06-22T05:54:04.313Z,25.33
2018-06-22T05:56:30.716Z,25.45
2018-06-22T05:58:57.099Z,25.33
2018-06-22T06:01:23.508Z,25.41
2018-06-22T06:03:49.852Z,25.40
2018-06-22T06:06:16.175Z,25.38
2018-06-22T06:08:42.668Z,25.34
2018-06-22T06:11:09.265Z,25.40
2018-06-22T06:13:35.685Z,25.47
2018-06-22T06:16:02.085Z,25.44
2018-06-22T06:18:28.871Z,25.52
2018-06-22T06:20:55.809Z,25.37
2018-06-22T06:23:22.284Z,25.69
2018-06-22T06:25:48.628Z,25.57
2018-06-22T06:28:15.026Z,25.73
2018-06-22T06:30:41.504Z,25.92
2018-06-22T06:33:07.959Z,25.72
2018-06-22T06:35:34.405Z,25.71
2018-06-22T06:38:00.872Z,25.80
2018-06-22T06:40:27.512Z,25.66
2018-06-22T06:42:54.000Z,25.91
2018-06-22T06:45:20.393Z,26.05
2018-06-22T06:47:46.728Z,26.25
2018-06-22T06:50:13.148Z,26.18
2018-06-22T06:52:39.543Z,26.24
2018-06-22T06:55:06.032Z,26.32
2018-06-22T06:57:32.388Z,26.27
2018-06-22T06:59:58.793Z,26.26
2018-06-22T07:02:25.200Z,26.30
2018-06-22T07:04:51.567Z,26.42
2018-06-22T07:07:17.935Z,26.31
2018-06-22T07:09:44.322Z,26.32
2018-06-22T07:12:10.670Z,26.28
2018-06-22T07:14:37.146Z,26.33
2018-06-22T07:17:03.504Z,26.27
2018-06-22T07:19:29.924Z,26.42
2018-06-22T07:21:56.352Z,26.34
2018-06-22T07:24:22.704Z,26.34
2018-06-22T07:26:49.090Z,26.43
2018-06-22T07:29:15.417Z,26.62
2018-06-22T07:31:41.808Z,26.50
2018-06-22T07:34:08.291Z,26.57
2018-06-22T07:36:34.629Z,26.41
2018-06-22T07:39:01.089Z,26.59
2018-06-22T07:41:27.733Z,26.37
2018-06-22T07:43:54.638Z,26.51
2018-06-22T07:46:21.003Z,26.56
2018-06-22T07:48:47.481Z,26.49
2018-06-22T07:51:13.922Z,26.60
2018-06-22T07:53:40.348Z,26.52
2018-06-22T07:56:06.776Z,26.44
2018-06-22T07:58:33.129Z,26.48
2018-06-22T08:00:59.491Z,26.60
2018-06-22T08:03:25.952Z,26.53
2018-06-22T08:05:52.391Z,26.48
2018-06-22T08:08:18.840Z,26.55
2018-06-22T08:10:45.186Z,26.51
2018-06-22T08:13:11.705Z,26.53
2018-06-22T08:15:38.974Z,26.60
2018-06-22T08:18:05.408Z,26.50
2018-06-22T08:20:31.811Z,26.52
2018-06-22T08:22:58.291Z,26.63
2018-06-22T08:25:24.652Z,26.49
2018-06-22T08:27:51.012Z,26.59
2018-06-22T08:30:17.381Z,26.49
2018-06-22T08:32:43.828Z,26.52
2018-06-22T08:35:10.227Z,26.64
2018-06-22T08:37:36.588Z,26.55
2018-06-22T08:40:02.942Z,26.57
2018-06-22T08:42:29.406Z,26.61
2018-06-22T08:44:55.768Z,26.45
2018-06-22T08:47:22.130Z,26.40
2018-06-22T08:49:48.491Z,26.54
2018-06-22T08:52:14.961Z,26.59
2018-06-22T08:54:41.424Z,26.38
2018-06-22T08:57:07.825Z,26.34
2018-06-22T08:59:34.177Z,26.22
2018-06-22T09:02:00.579Z,26.27
2018-06-22T09:06:48.177Z,26.37
2018-06-22T09:09:14.617Z,26.48
2018-06-22T09:11:41.260Z,26.42
2018-06-22T09:14:07.640Z,26.33
2018-06-22T09:16:34.203Z,26.28
2018-06-22T09:19:00.924Z,26.34
2018-06-22T09:21:27.451Z,26.20
2018-06-22T09:23:54.018Z,26.04
2018-06-22T09:26:20.472Z,26.13
2018-06-22T09:28:46.924Z,26.43
2018-06-22T09:31:13.524Z,26.34
2018-06-22T09:33:40.134Z,26.17
2018-06-22T09:36:06.774Z,26.19
2018-06-22T09:38:33.437Z,26.15
2018-06-22T09:40:59.899Z,26.18
2018-06-22T09:43:26.354Z,26.43
2018-06-22T09:45:52.929Z,26.26
2018-06-22T09:48:19.384Z,26.34
2018-06-22T09:50:45.828Z,26.42
2018-06-22T09:53:12.302Z,26.44
2018-06-22T09:55:38.673Z,26.34
2018-06-22T09:58:05.218Z,26.72
2018-06-22T10:00:31.594Z,26.45
2018-06-22T10:02:58.039Z,26.22
2018-06-22T10:05:24.405Z,26.48
2018-06-22T10:07:50.840Z,26.59
2018-06-22T10:10:17.250Z,26.38
2018-06-22T10:12:43.720Z,26.43
2018-06-22T10:15:10.194Z,26.65
2018-06-22T10:17:36.635Z,26.61
2018-06-22T10:20:03.099Z,26.53
2018-06-22T10:22:29.572Z,26.52
2018-06-22T10:24:56.126Z,26.57
2018-06-22T10:27:22.899Z,26.62
2018-06-22T10:29:49.371Z,26.63
2018-06-22T10:32:15.933Z,26.51
2018-06-22T10:34:42.682Z,26.64
2018-06-22T10:37:09.163Z,26.54
2018-06-22T10:39:39.017Z,26.51
2018-06-22T10:42:05.357Z,26.60
2018-06-22T10:44:31.856Z,26.59
2018-06-22T10:46:58.457Z,26.68
2018-06-22T10:52:07.446Z,26.46
2018-06-22T10:54:38.784Z,26.39
2018-06-22T10:57:06.581Z,26.63
2018-06-22T11:04:48.851Z,26.62
2018-06-22T11:07:16.098Z,26.61
2018-06-22T11:09:48.923Z,26.57
2018-06-22T11:12:17.676Z,26.30
2018-06-22T11:14:46.031Z,26.50
2018-06-22T11:17:13.573Z,26.43
2018-06-22T11:22:17.864Z,26.38
2018-06-22T11:24:51.326Z,26.38
2018-06-22T11:27:17.953Z,26.16
2018-06-22T11:29:44.784Z,26.14
2018-06-22T11:32:19.543Z,26.18
2018-06-22T11:34:47.090Z,26.12
2018-06-22T11:37:14.357Z,26.12
2018-06-22T11:39:45.535Z,26.29
2018-06-22T11:42:12.132Z,26.63
2018-06-22T11:44:42.213Z,26.57
2018-06-22T11:47:11.931Z,26.73
2018-06-22T11:49:41.597Z,26.70
2018-06-22T11:52:12.145Z,26.61
2018-06-22T11:57:13.334Z,26.49
2018-06-22T11:59:42.440Z,26.50
2018-06-22T12:02:13.218Z,26.46
2018-06-22T12:04:43.942Z,26.44
2018-06-22T12:07:15.581Z,26.39
2018-06-22T12:12:41.242Z,26.34
2018-06-22T12:15:13.197Z,26.31
2018-06-22T12:17:40.624Z,26.37
2018-06-22T12:22:42.524Z,26.39
2018-06-22T12:25:09.546Z,26.45
2018-06-22T12:27:38.320Z,26.49
2018-06-22T12:30:08.240Z,26.59
2018-06-22T12:35:13.907Z,26.53
2018-06-22T12:37:46.122Z,26.42
2018-06-22T12:40:26.006Z,26.47
2018-06-22T12:42:55.807Z,26.46
2018-06-22T12:45:22.592Z,26.62
2018-06-22T12:47:50.935Z,26.49
2018-06-22T12:50:18.296Z,26.57
2018-06-22T12:52:45.292Z,26.41
2018-06-22T12:55:13.086Z,26.35
2018-06-22T12:57:39.982Z,26.45
2018-06-22T13:03:37.292Z,26.38
2018-06-22T13:06:06.129Z,26.39
2018-06-22T13:08:32.670Z,26.45
2018-06-22T13:10:59.240Z,26.33
2018-06-22T13:13:25.708Z,26.24
2018-06-22T13:15:55.358Z,26.53
2018-06-22T13:18:21.766Z,26.15
2018-06-22T13:20:48.244Z,26.33
2018-06-22T13:23:16.347Z,26.20
2018-06-22T13:25:43.155Z,26.14
2018-06-22T13:28:09.783Z,26.14
2018-06-22T13:30:36.732Z,26.12
2018-06-22T13:33:03.317Z,26.25
2018-06-22T13:35:30.834Z,26.09
2018-06-22T13:37:57.594Z,26.05
2018-06-22T13:40:23.967Z,26.09
2018-06-22T13:42:50.618Z,25.96
2018-06-22T13:45:17.102Z,26.14
2018-06-22T13:47:43.584Z,26.01
2018-06-22T13:50:10.011Z,26.11
2018-06-22T13:52:37.857Z,26.09
2018-06-22T13:55:04.355Z,26.09
2018-06-22T13:57:30.726Z,25.96
2018-06-22T13:59:57.116Z,26.17
2018-06-22T14:02:23.592Z,26.05
2018-06-22T14:04:49.944Z,25.99
2018-06-22T14:07:16.286Z,26.05
2018-06-22T14:09:43.299Z,25.96
2018-06-22T14:12:09.748Z,26.02
2018-06-22T14:14:36.298Z,25.96
2018-06-22T14:17:03.029Z,25.95
2018-06-22T14:19:29.407Z,25.98
2018-06-22T14:21:56.747Z,25.91
2018-06-22T14:24:23.167Z,25.96
2018-06-22T14:26:49.508Z,25.88
2018-06-22T14:29:16.004Z,25.94
2018-06-22T14:31:42.412Z,25.86
2018-06-22T14:34:08.877Z,25.83
2018-06-22T14:36:35.506Z,26.05
2018-06-22T14:39:02.180Z,25.95
2018-06-22T14:41:28.574Z,25.86
2018-06-22T14:43:54.943Z,25.89
2018-06-22T14:46:21.396Z,25.85
2018-06-22T14:48:47.784Z,25.79
2018-06-22T14:51:14.165Z,25.77
2018-06-22T14:53:40.531Z,25.78
2018-06-22T14:56:06.951Z,25.82
2018-06-22T14:58:33.385Z,25.88
2018-06-22T15:00:59.772Z,25.89
2018-06-22T15:03:26.200Z,25.87
2018-06-22T15:05:52.611Z,25.99
2018-06-22T15:08:18.935Z,25.90
2018-06-22T15:10:45.287Z,25.81
2018-06-22T15:13:12.168Z,25.87
2018-06-22T15:15:38.622Z,25.88
2018-06-22T15:18:05.162Z,25.64
2018-06-22T15:20:31.586Z,25.72
2018-06-22T15:22:57.970Z,25.78
2018-06-22T15:25:24.298Z,25.75
2018-06-22T15:27:50.703Z,25.91
2018-06-22T15:30:17.046Z,25.89
2018-06-22T15:32:43.371Z,25.86
2018-06-22T15:35:09.729Z,25.77
2018-06-22T15:37:36.138Z,25.68
2018-06-22T15:40:02.562Z,25.78
2018-06-22T15:42:28.921Z,25.64
2018-06-22T15:44:55.301Z,25.51
2018-06-22T15:47:21.666Z,25.43
2018-06-22T15:49:47.996Z,25.67
2018-06-22T15:52:14.331Z,25.58
2018-06-22T15:54:40.703Z,25.51
2018-06-22T15:57:07.097Z,25.39
2018-06-22T15:59:33.446Z,25.48
2018-06-22T16:01:59.842Z,25.53
2018-06-22T16:04:26.215Z,25.56
2018-06-22T16:06:52.578Z,25.57
2018-06-22T16:09:18.940Z,25.43
2018-06-22T16:11:45.277Z,25.43
2018-06-22T16:14:11.657Z,25.49
2018-06-22T16:16:37.982Z,25.38
2018-06-22T16:19:04.431Z,25.32
2018-06-22T16:21:30.902Z,25.52
2018-06-22T16:23:57.319Z,25.50
2018-06-22T16:26:23.676Z,25.43
2018-06-22T16:28:50.011Z,25.50
2018-06-22T16:31:16.382Z,25.41
2018-06-22T16:33:42.745Z,25.46
2018-06-22T16:36:09.121Z,25.39
2018-06-22T16:38:35.558Z,25.41
2018-06-22T16:41:01.931Z,25.37
2018-06-22T16:43:28.277Z,25.39
2018-06-22T16:45:54.641Z,25.38
2018-06-22T16:48:21.055Z,25.37
2018-06-22T16:50:47.485Z,25.40
2018-06-22T16:53:13.836Z,25.21
2018-06-22T16:55:40.163Z,25.33
2018-06-22T16:58:06.539Z,25.44
2018-06-22T17:00:32.965Z,25.33
2018-06-22T17:02:59.303Z,25.40
2018-06-22T17:05:25.692Z,25.46
2018-06-22T17:07:52.032Z,25.51
2018-06-22T17:10:18.460Z,25.57
2018-06-22T17:12:44.856Z,25.58
2018-06-22T17:15:11.175Z,25.60
2018-06-22T17:17:37.502Z,25.65
2018-06-22T17:20:03.875Z,25.71
2018-06-22T17:22:30.191Z,25.70
2018-06-22T17:24:56.524Z,25.65
2018-06-22T17:27:22.848Z,25.62
2018-06-22T17:29:49.167Z,25.65
2018-06-22T17:32:15.543Z,25.67
2018-06-22T17:34:41.879Z,25.66
2018-06-22T17:37:08.276Z,25.74
2018-06-22T17:39:34.615Z,25.72
2018-06-22T17:42:00.984Z,25.73
2018-06-22T17:44:27.317Z,25.79
2018-06-22T17:46:53.642Z,25.71
2018-06-22T17:49:19.974Z,25.68
2018-06-22T17:51:46.315Z,25.78
2018-06-22T17:54:12.675Z,25.79
2018-06-22T17:56:39.005Z,25.64
2018-06-22T17:59:05.397Z,25.71
2018-06-22T18:01:31.723Z,25.72
2018-06-22T18:03:58.057Z,25.51
2018-06-22T18:06:24.433Z,25.65
2018-06-22T18:08:50.765Z,25.63
2018-06-22T18:11:17.186Z,25.66
2018-06-22T18:13:43.511Z,25.48
2018-06-22T18:16:09.894Z,25.51
2018-06-22T18:18:36.264Z,25.53
2018-06-22T18:21:02.580Z,25.60
2018-06-22T18:23:28.909Z,25.63
2018-06-22T18:25:55.404Z,25.59
2018-06-22T18:28:21.725Z,25.55
2018-06-22T18:30:48.055Z,25.57
2018-06-22T18:33:14.435Z,25.55
2018-06-22T18:35:40.795Z,25.50
2018-06-22T18:38:07.116Z,25.49
2018-06-22T18:40:33.447Z,25.48
2018-06-22T18:42:59.764Z,25.51
2018-06-22T18:45:26.127Z,25.50
2018-06-22T18:47:52.472Z,25.50
2018-06-22T18:50:18.854Z,25.37
2018-06-22T18:52:45.221Z,25.46
2018-06-22T18:55:11.551Z,25.41
2018-06-22T18:57:37.988Z,25.37
2018-06-22T19:00:04.358Z,25.28
2018-06-22T19:02:30.693Z,25.29
2018-06-22T19:04:57.008Z,25.30
2018-06-22T19:07:23.409Z,25.08
2018-06-22T19:09:49.809Z,25.21
2018-06-22T19:12:16.161Z,25.22
2018-06-22T19:14:42.489Z,25.30
2018-06-22T19:17:08.865Z,25.18
2018-06-22T19:19:35.859Z,25.30
2018-06-22T19:22:02.184Z,25.17
2018-06-22T19:24:28.549Z,25.06
2018-06-22T19:26:54.876Z,24.99
2018-06-22T19:29:21.253Z,25.12
2018-06-22T19:31:47.610Z,25.04
2018-06-22T19:34:13.974Z,24.94
2018-06-22T19:36:40.331Z,25.02
2018-06-22T19:39:06.655Z,25.01
2018-06-22T19:41:33.128Z,25.08
2018-06-22T19:43:59.501Z,25.09
2018-06-22T19:46:25.828Z,25.14
2018-06-22T19:48:52.165Z,25.04
2018-06-22T19:51:18.530Z,25.04
2018-06-22T19:53:44.865Z,25.00
2018-06-22T19:56:11.201Z,25.01
2018-06-22T19:58:37.572Z,25.06
2018-06-22T20:01:03.939Z,25.01
2018-06-22T20:03:30.265Z,25.07
2018-06-22T20:05:56.581Z,25.06
2018-06-22T20:08:22.924Z,25.02
2018-06-22T20:10:49.256Z,25.04
2018-06-22T20:13:15.587Z,25.08
2018-06-22T20:15:41.913Z,25.09
2018-06-22T20:18:08.251Z,25.07
2018-06-22T20:20:34.567Z,24.95
2018-06-22T20:23:00.941Z,24.99
2018-06-22T20:25:27.313Z,25.00
2018-06-22T20:27:53.691Z,25.00
2018-06-22T20:30:20.055Z,25.11
2018-06-22T20:32:46.516Z,25.13
2018-06-22T20:35:12.860Z,25.10
2018-06-22T20:37:39.244Z,25.12
2018-06-22T20:40:05.667Z,25.11
2018-06-22T20:42:32.010Z,25.14
2018-06-22T20:44:58.381Z,25.10
2018-06-22T20:47:24.819Z,25.09
2018-06-22T20:49:51.150Z,25.11
2018-06-22T20:52:17.498Z,25.07
2018-06-22T20:54:43.840Z,25.06
2018-06-22T20:57:10.196Z,25.05
2018-06-22T20:59:36.571Z,24.98
2018-06-22T21:02:02.926Z,25.03
2018-06-22T21:04:29.290Z,24.98
2018-06-22T21:06:55.617Z,24.97
2018-06-22T21:09:22.015Z,24.98
2018-06-22T21:11:48.399Z,24.98
2018-06-22T21:14:14.773Z,24.96
2018-06-22T21:16:41.093Z,24.95
2018-06-22T21:19:07.507Z,24.93
2018-06-22T21:21:33.844Z,24.90
2018-06-22T21:24:00.209Z,24.92
2018-06-22T21:26:26.548Z,24.92
2018-06-22T21:28:52.894Z,24.88
2018-06-22T21:31:19.255Z,24.85
2018-06-22T21:33:45.578Z,24.87
2018-06-22T21:36:11.920Z,24.77
2018-06-22T21:38:38.246Z,24.81
2018-06-22T21:41:04.635Z,24.78
2018-06-22T21:43:30.963Z,24.78
2018-06-22T21:45:57.308Z,24.77
2018-06-22T21:48:23.699Z,24.80
2018-06-22T21:50:50.078Z,24.75
2018-06-22T21:53:16.437Z,24.72
2018-06-22T21:55:42.771Z,24.73
2018-06-22T21:58:09.196Z,24.75
2018-06-22T22:00:35.631Z,24.75
2018-06-22T22:03:01.989Z,24.72
2018-06-22T22:05:28.314Z,24.73
2018-06-22T22:07:54.642Z,24.72
2018-06-22T22:10:20.981Z,24.70
2018-06-22T22:12:47.330Z,24.65
2018-06-22T22:15:13.684Z,24.69
2018-06-22T22:17:39.994Z,24.65
2018-06-22T22:20:06.513Z,24.61
2018-06-22T22:22:32.881Z,24.60
2018-06-22T22:24:59.221Z,24.60
2018-06-22T22:27:25.588Z,24.57
2018-06-22T22:29:51.906Z,24.56
2018-06-22T22:32:18.279Z,24.57
2018-06-22T22:34:44.610Z,24.55
2018-06-22T22:37:10.972Z,24.48
2018-06-22T22:39:37.316Z,24.49
2018-06-22T22:42:03.640Z,24.46
2018-06-22T22:44:30.035Z,24.46
2018-06-22T22:46:56.397Z,24.46
2018-06-22T22:49:22.826Z,24.42
2018-06-22T22:51:49.134Z,24.41
2018-06-22T22:54:15.463Z,24.40
2018-06-22T22:56:41.792Z,24.44
2018-06-22T22:59:08.154Z,24.36
2018-06-22T23:01:34.588Z,24.39
2018-06-22T23:04:00.921Z,24.34
2018-06-22T23:06:27.307Z,24.33
2018-06-22T23:08:53.740Z,24.33
2018-06-22T23:11:20.081Z,24.29
2018-06-22T23:16:18.708Z,24.23
2018-06-22T23:18:45.037Z,24.27
2018-06-22T23:21:11.394Z,24.24
2018-06-22T23:23:37.775Z,24.28
2018-06-22T23:26:04.234Z,24.24
2018-06-22T23:28:30.558Z,24.23
2018-06-22T23:30:56.997Z,24.24
2018-06-22T23:33:23.361Z,24.21
2018-06-22T23:35:49.696Z,24.17
2018-06-22T23:38:16.011Z,24.14
2018-06-22T23:40:42.361Z,24.18
2018-06-22T23:43:08.802Z,24.11
2018-06-22T23:45:35.255Z,24.16
2018-06-22T23:48:01.576Z,24.12
2018-06-22T23:50:27.955Z,24.13
2018-06-22T23:52:54.276Z,24.08
2018-06-22T23:55:20.679Z,24.04
2018-06-22T23:57:47.031Z,24.09
